Home

PKWA Terminal Aerodrome Forecast (TAF)small logo


TAF provided by NWS Guam
2014/10/31 18:42
TAF PKWA 311733Z 3118/0118 07011KT P6SM VCSH SCT020 SCT120

      



Site Map | Contact Us | Copyright © 2007 Atmospheric Technology Services Company. All rights reserved.